sensor_id;sensor_type;location;lat;lon;timestamp;temperature;humidity
30037;DHT22;36325;51.512;-0.382;2022-12-24T00:01:27;9.40;99.90
30037;DHT22;36325;51.512;-0.382;2022-12-24T00:06:23;9.40;99.90
30037;DHT22;36325;51.512;-0.382;2022-12-24T00:13:47;9.40;99.90
30037;DHT22;36325;51.512;-0.382;2022-12-24T00:18:42;9.40;99.90
30037;DHT22;36325;51.512;-0.382;2022-12-24T00:21:15;9.40;99.90
30037;DHT22;36325;51.512;-0.382;2022-12-24T00:23:43;9.40;99.90
30037;DHT22;36325;51.512;-0.382;2022-12-24T00:26:12;9.40;99.90
30037;DHT22;36325;51.512;-0.382;2022-12-24T00:28:40;9.40;99.90
30037;DHT22;36325;51.512;-0.382;2022-12-24T00:31:12;9.10;99.90
30037;DHT22;36325;51.512;-0.382;2022-12-24T00:33:41;9.40;99.90
30037;DHT22;36325;51.512;-0.382;2022-12-24T00:36:08;9.40;99.90
30037;DHT22;36325;51.512;-0.382;2022-12-24T00:38:36;9.30;99.90
30037;DHT22;36325;51.512;-0.382;2022-12-24T00:41:05;9.30;99.90
30037;DHT22;36325;51.512;-0.382;2022-12-24T00:43:55;9.30;99.90
30037;DHT22;36325;51.512;-0.382;2022-12-24T00:46:24;9.30;99.90
30037;DHT22;36325;51.512;-0.382;2022-12-24T00:48:52;9.20;99.90
30037;DHT22;36325;51.512;-0.382;2022-12-24T00:51:20;9.30;99.90
30037;DHT22;36325;51.512;-0.382;2022-12-24T00:53:48;9.20;99.90
30037;DHT22;36325;51.512;-0.382;2022-12-24T00:56:16;9.20;99.90
30037;DHT22;36325;51.512;-0.382;2022-12-24T00:58:46;9.20;99.90
30037;DHT22;36325;51.512;-0.382;2022-12-24T01:01:15;9.20;99.90
30037;DHT22;36325;51.512;-0.382;2022-12-24T01:06:17;9.10;99.90
30037;DHT22;36325;51.512;-0.382;2022-12-24T01:13:41;7.30;99.90
30037;DHT22;36325;51.512;-0.382;2022-12-24T01:16:18;9.10;99.90
30037;DHT22;36325;51.512;-0.382;2022-12-24T01:18:47;9.10;99.90
30037;DHT22;36325;51.512;-0.382;2022-12-24T01:21:16;9.10;99.90
30037;DHT22;36325;51.512;-0.382;2022-12-24T01:26:12;9.10;99.90
30037;DHT22;36325;51.512;-0.382;2022-12-24T01:31:14;9.00;99.90
30037;DHT22;36325;51.512;-0.382;2022-12-24T01:33:42;9.00;99.90
30037;DHT22;36325;51.512;-0.382;2022-12-24T01:38:39;9.10;99.90
30037;DHT22;36325;51.512;-0.382;2022-12-24T01:41:11;9.00;99.90
30037;DHT22;36325;51.512;-0.382;2022-12-24T01:44:14;9.10;99.90
30037;DHT22;36325;51.512;-0.382;2022-12-24T01:49:12;8.90;99.90
30037;DHT22;36325;51.512;-0.382;2022-12-24T01:51:53;8.90;99.90
30037;DHT22;36325;51.512;-0.382;2022-12-24T01:57:06;8.90;99.90
30037;DHT22;36325;51.512;-0.382;2022-12-24T01:59:36;9.00;99.90
30037;DHT22;36325;51.512;-0.382;2022-12-24T02:10:08;9.00;99.90
30037;DHT22;36325;51.512;-0.382;2022-12-24T02:12:36;9.00;99.90
30037;DHT22;36325;51.512;-0.382;2022-12-24T02:15:07;8.90;99.90
30037;DHT22;36325;51.512;-0.382;2022-12-24T02:18:06;9.00;99.90
30037;DHT22;36325;51.512;-0.382;2022-12-24T02:24:14;9.00;99.90
30037;DHT22;36325;51.512;-0.382;2022-12-24T02:30:19;9.00;99.90
30037;DHT22;36325;51.512;-0.382;2022-12-24T02:38:35;8.90;99.90
30037;DHT22;36325;51.512;-0.382;2022-12-24T02:41:24;8.80;99.90
30037;DHT22;36325;51.512;-0.382;2022-12-24T02:43:56;8.80;99.90
30037;DHT22;36325;51.512;-0.382;2022-12-24T02:46:26;8.80;99.90
30037;DHT22;36325;51.512;-0.382;2022-12-24T02:48:58;8.80;99.90
30037;DHT22;36325;51.512;-0.382;2022-12-24T02:51:26;8.80;99.90
30037;DHT22;36325;51.512;-0.382;2022-12-24T02:53:53;8.70;99.90
30037;DHT22;36325;51.512;-0.382;2022-12-24T02:56:33;8.70;99.90
30037;DHT22;36325;51.512;-0.382;2022-12-24T03:07:28;8.70;99.90
30037;DHT22;36325;51.512;-0.382;2022-12-24T03:12:40;8.80;99.90
30037;DHT22;36325;51.512;-0.382;2022-12-24T03:15:11;8.70;99.90
30037;DHT22;36325;51.512;-0.382;2022-12-24T03:17:41;8.70;99.90
30037;DHT22;36325;51.512;-0.382;2022-12-24T03:20:13;8.70;99.90
30037;DHT22;36325;51.512;-0.382;2022-12-24T03:25:10;8.70;99.90
30037;DHT22;36325;51.512;-0.382;2022-12-24T03:30:10;8.60;99.90
30037;DHT22;36325;51.512;-0.382;2022-12-24T03:32:39;8.60;99.90
30037;DHT22;36325;51.512;-0.382;2022-12-24T03:35:07;8.60;99.90
30037;DHT22;36325;51.512;-0.382;2022-12-24T03:37:34;8.60;99.90
30037;DHT22;36325;51.512;-0.382;2022-12-24T03:40:05;8.60;99.90
30037;DHT22;36325;51.512;-0.382;2022-12-24T03:42:33;8.60;99.90
30037;DHT22;36325;51.512;-0.382;2022-12-24T03:45:01;8.60;99.90
30037;DHT22;36325;51.512;-0.382;2022-12-24T03:54:56;8.60;99.90
30037;DHT22;36325;51.512;-0.382;2022-12-24T03:57:23;8.60;99.90
30037;DHT22;36325;51.512;-0.382;2022-12-24T03:59:51;8.60;99.90
30037;DHT22;36325;51.512;-0.382;2022-12-24T04:07:18;8.60;99.90
30037;DHT22;36325;51.512;-0.382;2022-12-24T04:12:14;8.50;99.90
30037;DHT22;36325;51.512;-0.382;2022-12-24T04:14:41;8.50;99.90
30037;DHT22;36325;51.512;-0.382;2022-12-24T04:17:08;8.50;99.90
30037;DHT22;36325;51.512;-0.382;2022-12-24T04:19:35;8.50;99.90
30037;DHT22;36325;51.512;-0.382;2022-12-24T04:22:08;8.50;99.90
30037;DHT22;36325;51.512;-0.382;2022-12-24T04:29:32;8.40;99.90
30037;DHT22;36325;51.512;-0.382;2022-12-24T04:36:57;8.30;99.90
30037;DHT22;36325;51.512;-0.382;2022-12-24T04:39:24;8.30;99.90
30037;DHT22;36325;51.512;-0.382;2022-12-24T04:54:11;8.30;99.90
30037;DHT22;36325;51.512;-0.382;2022-12-24T04:59:07;4.80;99.90
30037;DHT22;36325;51.512;-0.382;2022-12-24T05:04:02;8.20;99.90
30037;DHT22;36325;51.512;-0.382;2022-12-24T05:06:31;8.20;99.90
30037;DHT22;36325;51.512;-0.382;2022-12-24T05:11:27;8.30;99.90
30037;DHT22;36325;51.512;-0.382;2022-12-24T05:13:56;8.30;99.90
30037;DHT22;36325;51.512;-0.382;2022-12-24T05:18:52;8.20;99.90
30037;DHT22;36325;51.512;-0.382;2022-12-24T05:21:21;8.10;99.90
30037;DHT22;36325;51.512;-0.382;2022-12-24T05:26:39;8.10;99.90
30037;DHT22;36325;51.512;-0.382;2022-12-24T05:29:07;8.00;99.90
30037;DHT22;36325;51.512;-0.382;2022-12-24T05:38:58;8.00;99.90
30037;DHT22;36325;51.512;-0.382;2022-12-24T05:41:26;7.90;99.90
30037;DHT22;36325;51.512;-0.382;2022-12-24T05:43:53;7.90;99.90
30037;DHT22;36325;51.512;-0.382;2022-12-24T05:46:23;7.90;99.90
30037;DHT22;36325;51.512;-0.382;2022-12-24T05:48:51;7.80;99.90
30037;DHT22;36325;51.512;-0.382;2022-12-24T05:51:20;7.80;99.90
30037;DHT22;36325;51.512;-0.382;2022-12-24T05:53:49;7.80;99.90
30037;DHT22;36325;51.512;-0.382;2022-12-24T05:56:22;7.70;99.90
30037;DHT22;36325;51.512;-0.382;2022-12-24T06:01:21;7.70;99.90
30037;DHT22;36325;51.512;-0.382;2022-12-24T06:03:50;7.60;99.90
30037;DHT22;36325;51.512;-0.382;2022-12-24T06:06:24;7.60;99.90
30037;DHT22;36325;51.512;-0.382;2022-12-24T06:08:53;7.60;99.90
30037;DHT22;36325;51.512;-0.382;2022-12-24T06:11:23;7.50;99.90
30037;DHT22;36325;51.512;-0.382;2022-12-24T06:13:52;7.50;99.90
30037;DHT22;36325;51.512;-0.382;2022-12-24T06:16:21;7.50;99.90
30037;DHT22;36325;51.512;-0.382;2022-12-24T06:18:49;7.60;99.90
30037;DHT22;36325;51.512;-0.382;2022-12-24T06:21:17;7.60;99.90
30037;DHT22;36325;51.512;-0.382;2022-12-24T06:23:45;7.60;99.90
30037;DHT22;36325;51.512;-0.382;2022-12-24T06:26:16;7.60;99.90
30037;DHT22;36325;51.512;-0.382;2022-12-24T06:28:45;7.60;99.90
30037;DHT22;36325;51.512;-0.382;2022-12-24T06:31:17;7.50;99.90
30037;DHT22;36325;51.512;-0.382;2022-12-24T06:36:15;7.50;99.90
30037;DHT22;36325;51.512;-0.382;2022-12-24T06:38:44;7.50;99.90
30037;DHT22;36325;51.512;-0.382;2022-12-24T06:41:15;7.50;99.90
30037;DHT22;36325;51.512;-0.382;2022-12-24T06:43:47;7.60;99.90
30037;DHT22;36325;51.512;-0.382;2022-12-24T06:46:16;7.60;99.90
30037;DHT22;36325;51.512;-0.382;2022-12-24T06:48:44;7.50;99.90
30037;DHT22;36325;51.512;-0.382;2022-12-24T06:51:13;7.50;99.90
30037;DHT22;36325;51.512;-0.382;2022-12-24T06:56:11;7.60;99.90
30037;DHT22;36325;51.512;-0.382;2022-12-24T06:58:42;7.60;99.90
30037;DHT22;36325;51.512;-0.382;2022-12-24T07:01:13;7.70;99.90
30037;DHT22;36325;51.512;-0.382;2022-12-24T07:03:41;7.40;99.90
30037;DHT22;36325;51.512;-0.382;2022-12-24T07:06:28;7.70;99.90
30037;DHT22;36325;51.512;-0.382;2022-12-24T07:11:24;7.70;99.90
30037;DHT22;36325;51.512;-0.382;2022-12-24T07:13:52;7.70;99.90
30037;DHT22;36325;51.512;-0.382;2022-12-24T07:33:34;7.50;99.90
30037;DHT22;36325;51.512;-0.382;2022-12-24T07:36:04;7.50;99.90
30037;DHT22;36325;51.512;-0.382;2022-12-24T07:38:33;7.50;99.90
30037;DHT22;36325;51.512;-0.382;2022-12-24T07:45:57;7.50;99.90
30037;DHT22;36325;51.512;-0.382;2022-12-24T07:48:26;7.50;99.90
30037;DHT22;36325;51.512;-0.382;2022-12-24T07:50:55;7.50;99.90
30037;DHT22;36325;51.512;-0.382;2022-12-24T07:53:24;7.50;99.90
30037;DHT22;36325;51.512;-0.382;2022-12-24T07:55:53;7.40;99.90
30037;DHT22;36325;51.512;-0.382;2022-12-24T07:58:22;7.40;99.90
30037;DHT22;36325;51.512;-0.382;2022-12-24T08:00:55;7.40;99.90
30037;DHT22;36325;51.512;-0.382;2022-12-24T08:03:23;7.40;99.90
30037;DHT22;36325;51.512;-0.382;2022-12-24T08:05:51;7.40;99.90
30037;DHT22;36325;51.512;-0.382;2022-12-24T08:08:19;7.40;99.90
30037;DHT22;36325;51.512;-0.382;2022-12-24T08:10:47;7.40;99.90
30037;DHT22;36325;51.512;-0.382;2022-12-24T08:15:43;7.40;99.90
30037;DHT22;36325;51.512;-0.382;2022-12-24T08:18:11;7.40;99.90
30037;DHT22;36325;51.512;-0.382;2022-12-24T08:20:39;7.30;99.90
30037;DHT22;36325;51.512;-0.382;2022-12-24T08:23:07;7.30;99.90
30037;DHT22;36325;51.512;-0.382;2022-12-24T08:25:35;7.20;99.90
30037;DHT22;36325;51.512;-0.382;2022-12-24T08:28:04;7.30;99.90
30037;DHT22;36325;51.512;-0.382;2022-12-24T08:30:34;7.20;99.90
30037;DHT22;36325;51.512;-0.382;2022-12-24T08:33:02;7.20;99.90
30037;DHT22;36325;51.512;-0.382;2022-12-24T08:42:54;7.30;99.90
30037;DHT22;36325;51.512;-0.382;2022-12-24T08:45:23;7.30;99.90
30037;DHT22;36325;51.512;-0.382;2022-12-24T08:47:50;7.20;99.90
30037;DHT22;36325;51.512;-0.382;2022-12-24T08:50:17;7.30;99.90
30037;DHT22;36325;51.512;-0.382;2022-12-24T08:52:45;7.30;99.90
30037;DHT22;36325;51.512;-0.382;2022-12-24T08:55:13;7.30;99.90
30037;DHT22;36325;51.512;-0.382;2022-12-24T09:00:11;7.20;99.90
30037;DHT22;36325;51.512;-0.382;2022-12-24T09:02:38;7.30;99.90
30037;DHT22;36325;51.512;-0.382;2022-12-24T09:05:07;7.20;99.90
30037;DHT22;36325;51.512;-0.382;2022-12-24T09:07:35;7.30;99.90
30037;DHT22;36325;51.512;-0.382;2022-12-24T09:10:03;7.10;99.90
30037;DHT22;36325;51.512;-0.382;2022-12-24T09:12:33;7.30;99.90
30037;DHT22;36325;51.512;-0.382;2022-12-24T09:15:02;7.30;99.90
30037;DHT22;36325;51.512;-0.382;2022-12-24T09:19:58;7.40;99.90
30037;DHT22;36325;51.512;-0.382;2022-12-24T09:24:54;7.50;99.90
30037;DHT22;36325;51.512;-0.382;2022-12-24T09:27:22;7.50;99.90
30037;DHT22;36325;51.512;-0.382;2022-12-24T09:29:52;7.50;99.90
30037;DHT22;36325;51.512;-0.382;2022-12-24T09:32:23;7.70;99.90
30037;DHT22;36325;51.512;-0.382;2022-12-24T09:39:47;7.90;99.90
30037;DHT22;36325;51.512;-0.382;2022-12-24T09:42:47;8.00;99.90
30037;DHT22;36325;51.512;-0.382;2022-12-24T09:45:32;8.10;99.90
30037;DHT22;36325;51.512;-0.382;2022-12-24T09:48:08;8.10;99.90
30037;DHT22;36325;51.512;-0.382;2022-12-24T09:50:52;8.20;99.90
30037;DHT22;36325;51.512;-0.382;2022-12-24T09:56:18;8.30;99.90
30037;DHT22;36325;51.512;-0.382;2022-12-24T09:59:51;8.50;99.90
30037;DHT22;36325;51.512;-0.382;2022-12-24T10:04:29;8.70;99.90
30037;DHT22;36325;51.512;-0.382;2022-12-24T10:07:07;8.70;99.90
30037;DHT22;36325;51.512;-0.382;2022-12-24T10:10:02;8.70;99.90
30037;DHT22;36325;51.512;-0.382;2022-12-24T10:15:22;8.90;99.90
30037;DHT22;36325;51.512;-0.382;2022-12-24T10:20:49;9.00;99.90
30037;DHT22;36325;51.512;-0.382;2022-12-24T10:23:50;9.00;99.90
30037;DHT22;36325;51.512;-0.382;2022-12-24T10:28:53;9.20;99.90
30037;DHT22;36325;51.512;-0.382;2022-12-24T10:31:25;9.30;99.90
30037;DHT22;36325;51.512;-0.382;2022-12-24T10:34:04;9.40;99.90
30037;DHT22;36325;51.512;-0.382;2022-12-24T10:36:33;9.40;99.90
30037;DHT22;36325;51.512;-0.382;2022-12-24T10:39:00;9.60;99.90
30037;DHT22;36325;51.512;-0.382;2022-12-24T10:41:28;9.70;99.90
30037;DHT22;36325;51.512;-0.382;2022-12-24T10:44:05;9.80;99.90
30037;DHT22;36325;51.512;-0.382;2022-12-24T10:46:38;9.80;99.90
30037;DHT22;36325;51.512;-0.382;2022-12-24T10:49:12;9.80;99.90
30037;DHT22;36325;51.512;-0.382;2022-12-24T10:51:54;9.80;99.90
30037;DHT22;36325;51.512;-0.382;2022-12-24T10:54:24;9.90;99.90
30037;DHT22;36325;51.512;-0.382;2022-12-24T10:57:00;9.80;99.90
30037;DHT22;36325;51.512;-0.382;2022-12-24T11:02:33;9.90;99.90
30037;DHT22;36325;51.512;-0.382;2022-12-24T11:05:06;9.90;99.90
30037;DHT22;36325;51.512;-0.382;2022-12-24T11:07:37;9.90;99.90
30037;DHT22;36325;51.512;-0.382;2022-12-24T11:10:06;10.00;99.90
30037;DHT22;36325;51.512;-0.382;2022-12-24T11:12:39;10.00;99.90
30037;DHT22;36325;51.512;-0.382;2022-12-24T11:15:32;10.10;99.90
30037;DHT22;36325;51.512;-0.382;2022-12-24T11:18:04;10.10;99.90
30037;DHT22;36325;51.512;-0.382;2022-12-24T11:20:38;10.10;99.90
30037;DHT22;36325;51.512;-0.382;2022-12-24T11:25:40;10.10;99.90
30037;DHT22;36325;51.512;-0.382;2022-12-24T11:28:20;10.10;99.90
30037;DHT22;36325;51.512;-0.382;2022-12-24T11:31:18;10.20;99.90
30037;DHT22;36325;51.512;-0.382;2022-12-24T11:33:48;10.20;99.90
30037;DHT22;36325;51.512;-0.382;2022-12-24T11:36:21;10.40;99.90
30037;DHT22;36325;51.512;-0.382;2022-12-24T11:38:55;10.60;99.90
30037;DHT22;36325;51.512;-0.382;2022-12-24T11:41:24;10.70;99.90
30037;DHT22;36325;51.512;-0.382;2022-12-24T11:44:03;10.70;99.90
30037;DHT22;36325;51.512;-0.382;2022-12-24T11:46:38;10.70;99.90
30037;DHT22;36325;51.512;-0.382;2022-12-24T11:49:22;10.70;99.90
30037;DHT22;36325;51.512;-0.382;2022-12-24T11:55:35;10.80;99.90
30037;DHT22;36325;51.512;-0.382;2022-12-24T12:00:50;10.90;99.90
30037;DHT22;36325;51.512;-0.382;2022-12-24T12:05:58;11.10;99.90
30037;DHT22;36325;51.512;-0.382;2022-12-24T12:08:29;11.20;99.90
30037;DHT22;36325;51.512;-0.382;2022-12-24T12:10:59;11.30;99.90
30037;DHT22;36325;51.512;-0.382;2022-12-24T12:13:30;11.30;99.90
30037;DHT22;36325;51.512;-0.382;2022-12-24T12:18:35;11.20;99.90
30037;DHT22;36325;51.512;-0.382;2022-12-24T12:21:18;11.10;99.90
30037;DHT22;36325;51.512;-0.382;2022-12-24T12:23:59;11.00;99.90
30037;DHT22;36325;51.512;-0.382;2022-12-24T12:29:26;10.80;99.90
30037;DHT22;36325;51.512;-0.382;2022-12-24T12:32:06;10.80;99.90
30037;DHT22;36325;51.512;-0.382;2022-12-24T12:34:57;10.80;99.90
30037;DHT22;36325;51.512;-0.382;2022-12-24T12:37:35;10.80;99.90
30037;DHT22;36325;51.512;-0.382;2022-12-24T12:40:13;10.70;99.90
30037;DHT22;36325;51.512;-0.382;2022-12-24T12:42:52;10.80;99.90
30037;DHT22;36325;51.512;-0.382;2022-12-24T12:48:41;12.70;99.90
30037;DHT22;36325;51.512;-0.382;2022-12-24T12:51:31;10.90;99.90
30037;DHT22;36325;51.512;-0.382;2022-12-24T12:54:24;11.00;99.90
30037;DHT22;36325;51.512;-0.382;2022-12-24T12:57:04;11.20;99.90
30037;DHT22;36325;51.512;-0.382;2022-12-24T13:13:06;12.00;99.90
30037;DHT22;36325;51.512;-0.382;2022-12-24T13:15:44;12.60;99.90
30037;DHT22;36325;51.512;-0.382;2022-12-24T13:18:50;12.60;99.90
30037;DHT22;36325;51.512;-0.382;2022-12-24T13:21:22;12.80;99.90
30037;DHT22;36325;51.512;-0.382;2022-12-24T13:24:06;12.70;99.90
30037;DHT22;36325;51.512;-0.382;2022-12-24T13:26:39;12.90;99.90
30037;DHT22;36325;51.512;-0.382;2022-12-24T13:29:29;13.10;99.90
30037;DHT22;36325;51.512;-0.382;2022-12-24T13:35:01;12.90;99.90
30037;DHT22;36325;51.512;-0.382;2022-12-24T13:58:43;12.00;99.90
30037;DHT22;36325;51.512;-0.382;2022-12-24T14:01:33;12.00;99.90
30037;DHT22;36325;51.512;-0.382;2022-12-24T14:04:04;12.10;99.90
30037;DHT22;36325;51.512;-0.382;2022-12-24T14:06:39;12.00;99.90
30037;DHT22;36325;51.512;-0.382;2022-12-24T14:09:21;12.00;99.90
30037;DHT22;36325;51.512;-0.382;2022-12-24T14:14:33;12.00;99.90
30037;DHT22;36325;51.512;-0.382;2022-12-24T14:17:14;12.00;99.90
30037;DHT22;36325;51.512;-0.382;2022-12-24T14:22:37;11.90;99.90
30037;DHT22;36325;51.512;-0.382;2022-12-24T14:25:20;12.00;99.90
30037;DHT22;36325;51.512;-0.382;2022-12-24T14:28:14;12.10;99.90
30037;DHT22;36325;51.512;-0.382;2022-12-24T14:30:59;12.10;99.90
30037;DHT22;36325;51.512;-0.382;2022-12-24T14:33:34;12.10;99.90
30037;DHT22;36325;51.512;-0.382;2022-12-24T14:36:02;12.10;99.90
30037;DHT22;36325;51.512;-0.382;2022-12-24T14:41:18;12.10;99.90
30037;DHT22;36325;51.512;-0.382;2022-12-24T14:46:33;12.10;99.90
30037;DHT22;36325;51.512;-0.382;2022-12-24T14:55:30;11.90;99.90
30037;DHT22;36325;51.512;-0.382;2022-12-24T14:58:31;11.70;99.90
30037;DHT22;36325;51.512;-0.382;2022-12-24T15:01:19;11.50;99.90
30037;DHT22;36325;51.512;-0.382;2022-12-24T15:06:33;11.50;99.90
30037;DHT22;36325;51.512;-0.382;2022-12-24T15:09:01;11.40;99.90
30037;DHT22;36325;51.512;-0.382;2022-12-24T15:11:29;11.30;99.90
30037;DHT22;36325;51.512;-0.382;2022-12-24T15:13:58;11.20;99.90
30037;DHT22;36325;51.512;-0.382;2022-12-24T15:16:30;11.20;99.90
30037;DHT22;36325;51.512;-0.382;2022-12-24T15:19:02;11.10;99.90
30037;DHT22;36325;51.512;-0.382;2022-12-24T15:21:33;11.10;99.90
30037;DHT22;36325;51.512;-0.382;2022-12-24T15:24:25;11.00;99.90
30037;DHT22;36325;51.512;-0.382;2022-12-24T15:26:53;11.00;99.90
30037;DHT22;36325;51.512;-0.382;2022-12-24T15:29:28;10.90;99.90
30037;DHT22;36325;51.512;-0.382;2022-12-24T15:31:58;11.00;99.90
30037;DHT22;36325;51.512;-0.382;2022-12-24T15:34:38;10.90;99.90
30037;DHT22;36325;51.512;-0.382;2022-12-24T15:39:38;10.90;99.90
30037;DHT22;36325;51.512;-0.382;2022-12-24T15:42:10;10.90;99.90
30037;DHT22;36325;51.512;-0.382;2022-12-24T15:47:42;10.90;99.90
30037;DHT22;36325;51.512;-0.382;2022-12-24T15:52:44;11.00;99.90
30037;DHT22;36325;51.512;-0.382;2022-12-24T15:55:37;11.00;99.90
30037;DHT22;36325;51.512;-0.382;2022-12-24T15:58:29;11.00;99.90
30037;DHT22;36325;51.512;-0.382;2022-12-24T16:06:18;10.70;99.90
30037;DHT22;36325;51.512;-0.382;2022-12-24T16:08:46;10.60;99.90
30037;DHT22;36325;51.512;-0.382;2022-12-24T16:11:20;10.40;99.90
30037;DHT22;36325;51.512;-0.382;2022-12-24T16:16:20;10.30;99.90
30037;DHT22;36325;51.512;-0.382;2022-12-24T16:18:56;10.30;99.90
30037;DHT22;36325;51.512;-0.382;2022-12-24T16:21:35;10.40;99.90
30037;DHT22;36325;51.512;-0.382;2022-12-24T16:24:20;10.40;99.90
30037;DHT22;36325;51.512;-0.382;2022-12-24T16:26:50;10.40;99.90
30037;DHT22;36325;51.512;-0.382;2022-12-24T16:31:50;10.40;99.90
30037;DHT22;36325;51.512;-0.382;2022-12-24T16:34:22;10.40;99.90
30037;DHT22;36325;51.512;-0.382;2022-12-24T16:36:51;10.30;99.90
30037;DHT22;36325;51.512;-0.382;2022-12-24T16:39:29;10.30;99.90
30037;DHT22;36325;51.512;-0.382;2022-12-24T16:42:01;10.30;99.90
30037;DHT22;36325;51.512;-0.382;2022-12-24T16:44:52;10.20;99.90
30037;DHT22;36325;51.512;-0.382;2022-12-24T16:47:29;10.20;99.90
30037;DHT22;36325;51.512;-0.382;2022-12-24T16:50:06;10.10;99.90
30037;DHT22;36325;51.512;-0.382;2022-12-24T16:52:34;10.10;99.90
30037;DHT22;36325;51.512;-0.382;2022-12-24T16:57:33;10.20;99.90
30037;DHT22;36325;51.512;-0.382;2022-12-24T17:00:05;10.10;99.90
30037;DHT22;36325;51.512;-0.382;2022-12-24T17:07:35;10.10;99.90
30037;DHT22;36325;51.512;-0.382;2022-12-24T17:10:12;10.10;99.90
30037;DHT22;36325;51.512;-0.382;2022-12-24T17:12:40;10.20;99.90
30037;DHT22;36325;51.512;-0.382;2022-12-24T17:15:08;10.20;99.90
30037;DHT22;36325;51.512;-0.382;2022-12-24T17:20:04;10.20;99.90
30037;DHT22;36325;51.512;-0.382;2022-12-24T17:22:33;10.30;99.90
30037;DHT22;36325;51.512;-0.382;2022-12-24T17:27:29;10.20;99.90
30037;DHT22;36325;51.512;-0.382;2022-12-24T17:29:56;10.20;99.90
30037;DHT22;36325;51.512;-0.382;2022-12-24T17:32:24;10.20;99.90
30037;DHT22;36325;51.512;-0.382;2022-12-24T17:47:18;10.20;99.90
30037;DHT22;36325;51.512;-0.382;2022-12-24T17:52:15;10.20;99.90
30037;DHT22;36325;51.512;-0.382;2022-12-24T17:54:43;10.20;99.90
30037;DHT22;36325;51.512;-0.382;2022-12-24T18:02:10;10.30;99.90
30037;DHT22;36325;51.512;-0.382;2022-12-24T18:04:38;10.30;99.90
30037;DHT22;36325;51.512;-0.382;2022-12-24T18:12:06;10.20;99.90
30037;DHT22;36325;51.512;-0.382;2022-12-24T18:14:34;10.30;99.90
30037;DHT22;36325;51.512;-0.382;2022-12-24T18:17:02;10.30;99.90
30037;DHT22;36325;51.512;-0.382;2022-12-24T18:19:30;10.30;99.90
30037;DHT22;36325;51.512;-0.382;2022-12-24T18:29:22;10.20;99.90
30037;DHT22;36325;51.512;-0.382;2022-12-24T18:31:49;10.20;99.90
30037;DHT22;36325;51.512;-0.382;2022-12-24T18:36:45;10.20;99.90
30037;DHT22;36325;51.512;-0.382;2022-12-24T18:39:18;10.20;99.90
30037;DHT22;36325;51.512;-0.382;2022-12-24T18:41:46;10.20;99.90
30037;DHT22;36325;51.512;-0.382;2022-12-24T18:46:52;10.10;99.90
30037;DHT22;36325;51.512;-0.382;2022-12-24T18:51:50;10.10;99.90
30037;DHT22;36325;51.512;-0.382;2022-12-24T18:59:15;10.10;99.90
30037;DHT22;36325;51.512;-0.382;2022-12-24T19:04:12;10.20;99.90
30037;DHT22;36325;51.512;-0.382;2022-12-24T19:09:19;10.30;99.90
30037;DHT22;36325;51.512;-0.382;2022-12-24T19:19:14;10.40;99.90
30037;DHT22;36325;51.512;-0.382;2022-12-24T19:21:43;10.50;99.90
30037;DHT22;36325;51.512;-0.382;2022-12-24T19:24:11;10.50;99.90
30037;DHT22;36325;51.512;-0.382;2022-12-24T19:26:42;10.60;99.90
30037;DHT22;36325;51.512;-0.382;2022-12-24T19:34:05;10.50;99.90
30037;DHT22;36325;51.512;-0.382;2022-12-24T19:36:37;10.60;99.90
30037;DHT22;36325;51.512;-0.382;2022-12-24T19:39:05;10.60;99.90
30037;DHT22;36325;51.512;-0.382;2022-12-24T19:41:33;10.50;99.90
30037;DHT22;36325;51.512;-0.382;2022-12-24T19:44:01;10.60;99.90
30037;DHT22;36325;51.512;-0.382;2022-12-24T19:46:31;10.60;99.90
30037;DHT22;36325;51.512;-0.382;2022-12-24T19:49:01;10.60;99.90
30037;DHT22;36325;51.512;-0.382;2022-12-24T19:51:32;10.60;99.90
30037;DHT22;36325;51.512;-0.382;2022-12-24T19:56:29;9.90;99.90
30037;DHT22;36325;51.512;-0.382;2022-12-24T19:58:58;10.60;99.90
30037;DHT22;36325;51.512;-0.382;2022-12-24T20:01:28;10.60;99.90
30037;DHT22;36325;51.512;-0.382;2022-12-24T20:03:57;10.60;99.90
30037;DHT22;36325;51.512;-0.382;2022-12-24T20:06:28;10.60;99.90
30037;DHT22;36325;51.512;-0.382;2022-12-24T20:09:00;10.60;99.90
30037;DHT22;36325;51.512;-0.382;2022-12-24T20:11:35;10.60;99.90
30037;DHT22;36325;51.512;-0.382;2022-12-24T20:14:10;10.60;99.90
30037;DHT22;36325;51.512;-0.382;2022-12-24T20:16:44;10.60;99.90
30037;DHT22;36325;51.512;-0.382;2022-12-24T20:19:25;10.60;99.90
30037;DHT22;36325;51.512;-0.382;2022-12-24T20:26:49;10.70;99.90
30037;DHT22;36325;51.512;-0.382;2022-12-24T20:29:20;10.70;99.90
30037;DHT22;36325;51.512;-0.382;2022-12-24T20:36:47;10.70;99.90
30037;DHT22;36325;51.512;-0.382;2022-12-24T20:39:20;10.70;99.90
30037;DHT22;36325;51.512;-0.382;2022-12-24T20:44:30;10.80;99.90
30037;DHT22;36325;51.512;-0.382;2022-12-24T20:49:29;10.80;99.90
30037;DHT22;36325;51.512;-0.382;2022-12-24T20:51:56;10.80;99.90
30037;DHT22;36325;51.512;-0.382;2022-12-24T20:54:24;10.80;99.90
30037;DHT22;36325;51.512;-0.382;2022-12-24T20:56:51;10.80;99.90
30037;DHT22;36325;51.512;-0.382;2022-12-24T20:59:23;10.80;99.90
30037;DHT22;36325;51.512;-0.382;2022-12-24T21:04:21;10.80;99.90
30037;DHT22;36325;51.512;-0.382;2022-12-24T21:09:18;10.90;99.90
30037;DHT22;36325;51.512;-0.382;2022-12-24T21:11:45;10.90;99.90
30037;DHT22;36325;51.512;-0.382;2022-12-24T21:14:22;10.80;99.90
30037;DHT22;36325;51.512;-0.382;2022-12-24T21:16:51;10.80;99.90
30037;DHT22;36325;51.512;-0.382;2022-12-24T21:19:21;10.80;99.90
30037;DHT22;36325;51.512;-0.382;2022-12-24T21:21:49;10.80;99.90
30037;DHT22;36325;51.512;-0.382;2022-12-24T21:26:44;10.80;99.90
30037;DHT22;36325;51.512;-0.382;2022-12-24T21:31:41;10.80;99.90
30037;DHT22;36325;51.512;-0.382;2022-12-24T21:34:09;10.90;99.90
30037;DHT22;36325;51.512;-0.382;2022-12-24T21:36:37;10.90;99.90
30037;DHT22;36325;51.512;-0.382;2022-12-24T21:39:04;10.90;99.90
30037;DHT22;36325;51.512;-0.382;2022-12-24T21:44:00;10.90;99.90
30037;DHT22;36325;51.512;-0.382;2022-12-24T21:46:28;10.90;99.90
30037;DHT22;36325;51.512;-0.382;2022-12-24T21:48:55;10.90;99.90
30037;DHT22;36325;51.512;-0.382;2022-12-24T21:51:42;10.90;99.90
30037;DHT22;36325;51.512;-0.382;2022-12-24T21:54:12;10.90;99.90
30037;DHT22;36325;51.512;-0.382;2022-12-24T21:57:02;10.90;99.90
30037;DHT22;36325;51.512;-0.382;2022-12-24T21:59:50;10.90;99.90
30037;DHT22;36325;51.512;-0.382;2022-12-24T22:02:20;10.90;99.90
30037;DHT22;36325;51.512;-0.382;2022-12-24T22:04:48;10.90;99.90
30037;DHT22;36325;51.512;-0.382;2022-12-24T22:07:27;10.90;99.90
30037;DHT22;36325;51.512;-0.382;2022-12-24T22:10:13;10.90;99.90
30037;DHT22;36325;51.512;-0.382;2022-12-24T22:13:00;10.90;99.90
30037;DHT22;36325;51.512;-0.382;2022-12-24T22:15:34;11.00;99.90
30037;DHT22;36325;51.512;-0.382;2022-12-24T22:18:04;10.90;99.90
30037;DHT22;36325;51.512;-0.382;2022-12-24T22:20:35;10.90;99.90
30037;DHT22;36325;51.512;-0.382;2022-12-24T22:23:02;11.00;99.90
30037;DHT22;36325;51.512;-0.382;2022-12-24T22:25:30;10.90;99.90
30037;DHT22;36325;51.512;-0.382;2022-12-24T22:27:58;10.90;99.90
30037;DHT22;36325;51.512;-0.382;2022-12-24T22:30:26;11.00;99.90